Погода Мамхегна неделю

Республика Адыгея, Россия

14 - 20 июля
  • 14июля
    Сегодня
    +19°
    +35°
    Ясно и безоблачно
    ВремяПогодаТемператураВлажностьДавлениеВетер, м/сВероятность осадков
    00:00Ясно и безоблачно+22°C27 %749 мм5.8 м/с2 %
    03:00Ясно и безоблачно+20°C27 %749 мм4.8 м/с2 %
    06:00Ясно и безоблачно+19°C34 %750 мм4.3 м/с2 %
    09:00Ясно и безоблачно+27°C26 %749 мм4.9 м/с2 %
    12:00Ясно и безоблачно+32°C16 %749 мм6.1 м/с2 %
    15:00Ясно и безоблачно+34°C15 %748 мм6.6 м/с2 %
    18:00Ясно и безоблачно+32°C18 %748 мм5.9 м/с2 %
    21:00Ясно и безоблачно+26°C18 %748 мм6.3 м/с2 %
  • 15июля
    Понедельник
    +23°
    +38°
    Облачно с прояснениями
    ВремяПогодаТемператураВлажностьДавлениеВетер, м/сВероятность осадков
    00:00Ясно и безоблачно+23°C21 %749 мм5.5 м/с2 %
    03:00Практически безоблачно+20°C29 %748 мм4.1 м/с2 %
    06:00Небольшая облачность+19°C38 %749 мм3.9 м/с2 %
    09:00Облачно с прояснениями+29°C34 %749 мм4.9 м/с2 %
    12:00Небольшая облачность+35°C24 %748 мм7.0 м/с2 %
    15:00Облачно с прояснениями+37°C21 %747 мм6.6 м/с2 %
    18:00Облачно с прояснениями+36°C22 %747 мм4.8 м/с2 %
    21:00Облачно с прояснениями+29°C28 %748 мм6.1 м/с2 %
  • 16июля
    Вторник
    +24°
    +39°
    Практически безоблачно
    ВремяПогодаТемператураВлажностьДавлениеВетер, м/сВероятность осадков
    00:00Облачно с прояснениями+27°C30 %749 мм4.3 м/с2 %
    03:00Ясно и безоблачно+24°C33 %749 мм4.3 м/с2 %
    06:00Практически безоблачно+24°C40 %749 мм2.7 м/с2 %
    09:00Облачно с прояснениями+32°C30 %749 мм3.0 м/с2 %
    12:00Облачно с прояснениями+38°C19 %749 мм4.8 м/с2 %
    15:00Практически безоблачно+39°C17 %748 мм5.9 м/с2 %
    18:00Ясно и безоблачно+37°C20 %748 мм5.9 м/с2 %
    21:00Ясно и безоблачно+31°C26 %748 мм5.4 м/с2 %
  • 17июля
    Среда
    +24°
    +41°
    Небольшая облачность
    ВремяПогодаТемператураВлажностьДавлениеВетер, м/сВероятность осадков
    00:00Ясно и безоблачно+28°C28 %748 мм4.1 м/с2 %
    03:00Ясно и безоблачно+26°C34 %748 мм3.0 м/с2 %
    06:00Ясно и безоблачно+24°C40 %749 мм2.7 м/с2 %
    09:00Ясно и безоблачно+32°C29 %750 мм2.7 м/с2 %
    12:00Ясно и безоблачно+39°C18 %749 мм3.7 м/с2 %
    15:00Небольшая облачность+41°C14 %748 мм5.0 м/с2 %
    18:00Ясно и безоблачно+38°C18 %748 мм6.5 м/с2 %
    21:00Ясно и безоблачно+32°C23 %748 мм5.1 м/с2 %
Мы используем cookies
Соглашаюсь